createdAt,value
2022-11-29T00:01:27.751Z,101424.00
2022-11-29T00:03:55.160Z,101416.00
2022-11-29T00:06:28.034Z,101422.00
2022-11-29T00:08:56.809Z,101421.00
2022-11-29T00:11:45.047Z,101430.00
2022-11-29T00:14:14.829Z,101424.00
2022-11-29T00:16:41.525Z,101425.00
2022-11-29T00:19:09.841Z,101422.00
2022-11-29T00:21:36.615Z,101422.00
2022-11-29T00:24:03.381Z,101429.00
2022-11-29T00:26:29.958Z,101432.00
2022-11-29T00:28:56.537Z,101440.00
2022-11-29T00:31:27.382Z,101428.00
2022-11-29T00:33:54.034Z,101431.00
2022-11-29T00:36:20.698Z,101435.00
2022-11-29T00:38:47.264Z,101426.00
2022-11-29T00:41:13.927Z,101432.00
2022-11-29T00:43:40.891Z,101420.00
2022-11-29T00:46:08.442Z,101433.00
2022-11-29T00:48:35.698Z,101431.00
2022-11-29T00:51:02.956Z,101438.00
2022-11-29T00:53:29.534Z,101440.00
2022-11-29T00:55:56.588Z,101432.00
2022-11-29T00:58:23.509Z,101430.00
2022-11-29T01:00:50.218Z,101429.00
2022-11-29T01:03:17.489Z,101439.00
2022-11-29T01:05:44.779Z,101432.00
2022-11-29T01:08:12.440Z,101437.00
2022-11-29T01:10:39.137Z,101436.00
2022-11-29T01:13:06.102Z,101431.00
2022-11-29T01:15:33.659Z,101439.00
2022-11-29T01:18:00.323Z,101440.00
2022-11-29T01:20:27.334Z,101437.00
2022-11-29T01:22:54.265Z,101432.00
2022-11-29T01:25:20.955Z,101428.00
2022-11-29T01:27:47.778Z,101442.00
2022-11-29T01:30:14.843Z,101432.00
2022-11-29T01:32:42.054Z,101440.00
2022-11-29T01:35:09.029Z,101437.00
2022-11-29T01:37:35.706Z,101440.00
2022-11-29T01:40:02.557Z,101443.00
2022-11-29T01:42:29.194Z,101450.00
2022-11-29T01:45:03.767Z,101454.00
2022-11-29T01:47:31.055Z,101460.00
2022-11-29T01:49:57.968Z,101459.00
2022-11-29T01:52:28.527Z,101463.00
2022-11-29T01:54:58.541Z,101466.00
2022-11-29T01:57:26.501Z,101462.00
2022-11-29T01:59:58.319Z,101467.00
2022-11-29T02:02:32.244Z,101470.00
2022-11-29T02:05:01.101Z,101472.00
2022-11-29T02:07:27.870Z,101472.00
2022-11-29T02:09:54.524Z,101472.00
2022-11-29T02:12:47.546Z,101480.00
2022-11-29T02:15:28.077Z,101478.00
2022-11-29T02:18:15.503Z,101480.00
2022-11-29T02:21:00.440Z,101485.00
2022-11-29T02:24:01.155Z,101481.00
2022-11-29T02:26:44.199Z,101486.00
2022-11-29T02:29:47.099Z,101483.00
2022-11-29T02:32:48.903Z,101492.00
2022-11-29T02:35:34.565Z,101495.00
2022-11-29T02:38:35.149Z,101499.00
2022-11-29T02:41:18.374Z,101494.00
2022-11-29T02:44:13.284Z,101512.00
2022-11-29T02:47:12.007Z,101502.00
2022-11-29T02:50:17.166Z,101517.00
2022-11-29T02:53:06.614Z,101514.00
2022-11-29T02:56:03.049Z,101518.00
2022-11-29T02:58:54.130Z,101514.00
2022-11-29T03:01:30.964Z,101527.00
2022-11-29T03:04:23.740Z,101525.00
2022-11-29T03:07:11.223Z,101521.00
2022-11-29T03:09:45.136Z,101528.00
2022-11-29T03:12:30.275Z,101522.00
2022-11-29T03:14:59.729Z,101532.00
2022-11-29T03:17:55.728Z,101536.00
2022-11-29T03:20:59.878Z,101539.00
2022-11-29T03:23:48.608Z,101542.00
2022-11-29T03:26:21.108Z,101541.00
2022-11-29T03:28:50.518Z,101545.00
2022-11-29T03:31:29.133Z,101547.00
2022-11-29T03:34:04.402Z,101547.00
2022-11-29T03:36:44.370Z,101550.00
2022-11-29T03:39:18.657Z,101553.00
2022-11-29T03:41:55.432Z,101554.00
2022-11-29T03:44:39.925Z,101554.00
2022-11-29T03:47:14.693Z,101555.00
2022-11-29T03:49:52.350Z,101565.00
2022-11-29T03:52:26.665Z,101562.00
2022-11-29T03:55:21.067Z,101562.00
2022-11-29T03:57:56.649Z,101572.00
2022-11-29T04:00:24.175Z,101574.00
2022-11-29T04:03:12.512Z,101577.00
2022-11-29T04:06:00.594Z,101575.00
2022-11-29T04:08:39.284Z,101578.00
2022-11-29T04:11:37.159Z,101574.00
2022-11-29T04:14:31.509Z,101583.00
2022-11-29T04:17:13.946Z,101585.00
2022-11-29T04:19:46.942Z,101590.00
2022-11-29T04:22:27.635Z,101588.00
2022-11-29T04:25:08.965Z,101593.00
2022-11-29T04:28:09.386Z,101593.00
2022-11-29T04:30:56.992Z,101593.00
2022-11-29T04:33:40.640Z,101600.00
2022-11-29T04:36:16.579Z,101597.00
2022-11-29T04:39:17.310Z,101601.00
2022-11-29T04:42:14.901Z,101601.00
2022-11-29T04:45:20.286Z,101607.00
2022-11-29T04:48:05.175Z,101607.00
2022-11-29T04:50:50.359Z,101617.00
2022-11-29T04:53:16.784Z,101620.00
2022-11-29T04:55:52.482Z,101620.00
2022-11-29T04:58:46.456Z,101623.00
2022-11-29T05:01:34.270Z,101632.00
2022-11-29T05:04:12.706Z,101632.00
2022-11-29T05:06:57.231Z,101631.00
2022-11-29T05:09:50.057Z,101630.00
2022-11-29T05:12:33.851Z,101636.00
2022-11-29T05:15:22.241Z,101639.00
2022-11-29T05:18:07.064Z,101641.00
2022-11-29T05:20:55.258Z,101648.00
2022-11-29T05:24:05.866Z,101656.00
2022-11-29T05:26:55.123Z,101645.00
2022-11-29T05:29:29.856Z,101661.00
2022-11-29T05:32:02.003Z,101653.00
2022-11-29T05:34:37.520Z,101659.00
2022-11-29T05:37:07.169Z,101658.00
2022-11-29T05:40:15.158Z,101660.00
2022-11-29T05:42:50.529Z,101670.00
2022-11-29T05:45:25.466Z,101674.00
2022-11-29T05:48:19.714Z,101683.00
2022-11-29T05:50:54.880Z,101677.00
2022-11-29T05:53:28.102Z,101691.00
2022-11-29T05:56:18.363Z,101690.00
2022-11-29T05:59:03.501Z,101706.00
2022-11-29T06:01:34.862Z,101697.00
2022-11-29T06:04:04.159Z,101699.00
2022-11-29T06:06:45.605Z,101702.00
2022-11-29T06:09:29.365Z,101706.00
2022-11-29T06:12:02.542Z,101708.00
2022-11-29T06:15:11.699Z,101716.00
2022-11-29T06:17:44.175Z,101722.00
2022-11-29T06:20:48.350Z,101725.00
2022-11-29T06:23:33.525Z,101729.00
2022-11-29T06:26:04.337Z,101732.00
2022-11-29T06:28:49.164Z,101737.00
2022-11-29T06:31:29.725Z,101734.00
2022-11-29T06:34:07.412Z,101739.00
2022-11-29T06:36:51.024Z,101735.00
2022-11-29T06:39:18.018Z,101739.00
2022-11-29T06:41:44.608Z,101751.00
2022-11-29T06:44:11.658Z,101750.00
2022-11-29T06:46:48.044Z,101748.00
2022-11-29T06:49:23.707Z,101757.00
2022-11-29T06:52:13.782Z,101763.00
2022-11-29T06:54:52.294Z,101762.00
2022-11-29T06:57:42.454Z,101763.00
2022-11-29T07:00:27.036Z,101768.00
2022-11-29T07:03:17.588Z,101760.00
2022-11-29T07:05:44.608Z,101767.00
2022-11-29T07:08:22.452Z,101773.00
2022-11-29T07:10:53.214Z,101766.00
2022-11-29T07:13:20.853Z,101769.00
2022-11-29T07:16:17.678Z,101777.00
2022-11-29T07:18:59.063Z,101776.00
2022-11-29T07:21:50.822Z,101787.00
2022-11-29T07:24:23.903Z,101787.00
2022-11-29T07:26:59.322Z,101795.00
2022-11-29T07:29:37.783Z,101794.00
2022-11-29T07:32:04.308Z,101795.00
2022-11-29T07:34:40.198Z,101806.00
2022-11-29T07:37:17.490Z,101815.00
2022-11-29T07:40:12.294Z,101820.00
2022-11-29T07:43:16.612Z,101820.00
2022-11-29T07:45:43.484Z,101825.00
2022-11-29T07:48:12.543Z,101821.00
2022-11-29T07:50:40.912Z,101822.00
2022-11-29T07:53:09.392Z,101823.00
2022-11-29T07:55:37.027Z,101825.00
2022-11-29T07:58:03.623Z,101830.00
2022-11-29T08:00:30.182Z,101826.00
2022-11-29T08:02:56.769Z,101833.00
2022-11-29T08:05:24.011Z,101831.00
2022-11-29T08:07:50.764Z,101828.00
2022-11-29T08:10:17.519Z,101833.00
2022-11-29T08:12:47.731Z,101827.00
2022-11-29T08:15:14.874Z,101833.00
2022-11-29T08:17:41.644Z,101832.00
2022-11-29T08:20:10.029Z,101836.00
2022-11-29T08:22:36.691Z,101845.00
2022-11-29T08:25:04.516Z,101853.00
2022-11-29T08:27:31.756Z,101849.00
2022-11-29T08:29:58.369Z,101851.00
2022-11-29T08:32:25.870Z,101853.00
2022-11-29T08:34:52.668Z,101853.00
2022-11-29T08:37:19.360Z,101860.00
2022-11-29T08:39:46.032Z,101870.00
2022-11-29T08:42:12.637Z,101857.00
2022-11-29T08:44:39.262Z,101870.00
2022-11-29T08:47:24.209Z,101854.00
2022-11-29T08:50:03.319Z,101864.00
2022-11-29T08:52:57.021Z,101865.00
2022-11-29T08:55:26.341Z,101873.00
2022-11-29T08:57:54.854Z,101879.00
2022-11-29T09:00:21.714Z,101877.00
2022-11-29T09:02:48.913Z,101878.00
2022-11-29T09:05:15.939Z,101870.00
2022-11-29T09:07:43.036Z,101875.00
2022-11-29T09:10:11.329Z,101885.00
2022-11-29T09:12:39.744Z,101881.00
2022-11-29T09:15:11.213Z,101884.00
2022-11-29T09:17:37.749Z,101899.00
2022-11-29T09:20:05.990Z,101888.00
2022-11-29T09:22:32.622Z,101900.00
2022-11-29T09:24:59.180Z,101898.00
2022-11-29T09:27:25.772Z,101901.00
2022-11-29T09:29:52.354Z,101909.00
2022-11-29T09:32:18.925Z,101909.00
2022-11-29T09:34:45.893Z,101914.00
2022-11-29T09:37:12.818Z,101921.00
2022-11-29T09:39:41.515Z,101927.00
2022-11-29T09:42:31.273Z,101924.00
2022-11-29T09:45:05.105Z,101939.00
2022-11-29T09:47:52.249Z,101934.00
2022-11-29T09:50:34.144Z,101939.00
2022-11-29T09:53:27.321Z,101931.00
2022-11-29T09:56:23.557Z,101942.00
2022-11-29T09:59:29.051Z,101943.00
2022-11-29T10:02:21.085Z,101937.00
2022-11-29T10:04:53.612Z,101941.00
2022-11-29T10:07:37.617Z,101943.00
2022-11-29T10:10:37.743Z,101942.00
2022-11-29T10:13:29.936Z,101939.00
2022-11-29T10:16:03.152Z,101944.00
2022-11-29T10:18:36.129Z,101954.00
2022-11-29T10:21:12.753Z,101960.00
2022-11-29T10:23:45.857Z,101962.00
2022-11-29T10:26:13.284Z,101971.00
2022-11-29T10:28:47.786Z,101966.00
2022-11-29T10:31:19.347Z,101967.00
2022-11-29T10:33:46.375Z,101958.00
2022-11-29T10:36:41.613Z,101971.00
2022-11-29T10:39:31.050Z,101964.00
2022-11-29T10:42:01.697Z,101966.00
2022-11-29T10:44:28.981Z,101971.00
2022-11-29T10:46:56.191Z,101974.00
2022-11-29T10:49:32.457Z,101968.00
2022-11-29T10:51:59.027Z,101964.00
2022-11-29T10:54:39.721Z,101966.00
2022-11-29T10:57:18.105Z,101968.00
2022-11-29T11:00:04.541Z,101971.00
2022-11-29T11:02:31.989Z,101976.00
2022-11-29T11:04:59.361Z,101980.00
2022-11-29T11:07:35.115Z,101980.00
2022-11-29T11:10:04.517Z,101988.00
2022-11-29T11:12:33.341Z,101990.00
2022-11-29T11:15:28.652Z,101991.00
2022-11-29T11:18:05.060Z,101988.00
2022-11-29T11:20:42.262Z,101983.00
2022-11-29T11:23:28.659Z,101992.00
2022-11-29T11:26:07.693Z,101992.00
2022-11-29T11:28:58.018Z,101995.00
2022-11-29T11:31:34.859Z,101983.00
2022-11-29T11:34:23.828Z,101984.00
2022-11-29T11:36:50.429Z,101985.00
2022-11-29T11:39:22.392Z,101976.00
2022-11-29T11:42:10.117Z,101992.00
2022-11-29T11:44:47.506Z,101987.00
2022-11-29T11:47:25.073Z,101990.00
2022-11-29T11:49:56.114Z,101994.00
2022-11-29T11:52:29.852Z,101996.00
2022-11-29T11:55:03.087Z,102007.00
2022-11-29T11:57:30.470Z,101999.00
2022-11-29T12:00:05.020Z,102011.00
2022-11-29T12:02:37.325Z,102011.00
2022-11-29T12:05:11.597Z,102000.00
2022-11-29T12:08:09.384Z,102008.00
2022-11-29T12:10:39.922Z,102004.00
2022-11-29T12:13:15.054Z,102007.00
2022-11-29T12:15:45.227Z,102007.00
2022-11-29T12:18:20.618Z,102004.00
2022-11-29T12:21:02.077Z,101999.00
2022-11-29T12:23:57.134Z,101994.00
2022-11-29T12:29:19.872Z,101993.00
2022-11-29T12:31:58.383Z,101996.00
2022-11-29T12:34:47.711Z,102003.00
2022-11-29T12:37:22.117Z,102008.00
2022-11-29T12:40:20.835Z,102003.00
2022-11-29T12:43:18.975Z,102011.00
2022-11-29T12:45:59.057Z,102011.00
2022-11-29T12:48:42.899Z,102009.00
2022-11-29T12:51:18.479Z,102009.00
2022-11-29T12:54:05.190Z,102009.00
2022-11-29T12:57:07.411Z,102003.00
2022-11-29T13:00:10.896Z,102016.00
2022-11-29T13:02:58.790Z,102016.00
2022-11-29T13:05:43.554Z,102012.00
2022-11-29T13:08:24.045Z,102023.00
2022-11-29T13:11:12.112Z,102025.00
2022-11-29T13:13:46.845Z,102018.00
2022-11-29T13:16:33.260Z,102020.00
2022-11-29T13:19:08.094Z,102024.00
2022-11-29T13:21:53.649Z,102029.00
2022-11-29T13:24:42.588Z,102028.00
2022-11-29T13:27:18.315Z,102028.00
2022-11-29T13:29:46.148Z,102032.00
2022-11-29T13:32:31.657Z,102037.00
2022-11-29T13:35:03.540Z,102028.00
2022-11-29T13:37:38.742Z,102039.00
2022-11-29T13:40:35.529Z,102033.00
2022-11-29T13:43:18.637Z,102027.00
2022-11-29T13:46:07.139Z,102028.00
2022-11-29T13:48:50.683Z,102031.00
2022-11-29T13:51:37.591Z,102028.00
2022-11-29T13:54:26.085Z,102034.00
2022-11-29T13:57:07.862Z,102039.00
2022-11-29T13:59:40.551Z,102034.00
2022-11-29T14:02:31.307Z,102029.00
2022-11-29T14:04:58.485Z,102034.00
2022-11-29T14:07:25.293Z,102038.00
2022-11-29T14:10:28.373Z,102030.00
2022-11-29T14:12:56.897Z,102039.00
2022-11-29T14:15:28.204Z,102043.00
2022-11-29T14:18:36.542Z,102036.00
2022-11-29T14:21:04.523Z,102039.00
2022-11-29T14:23:34.269Z,102042.00
2022-11-29T14:26:00.891Z,102040.00
2022-11-29T14:28:33.528Z,102043.00
2022-11-29T14:31:03.979Z,102050.00
2022-11-29T14:33:48.447Z,102049.00
2022-11-29T14:36:15.052Z,102059.00
2022-11-29T14:39:03.218Z,102064.00
2022-11-29T14:41:47.846Z,102066.00
2022-11-29T14:44:14.626Z,102060.00
2022-11-29T14:46:41.339Z,102067.00
2022-11-29T14:49:21.260Z,102065.00
2022-11-29T14:52:06.245Z,102069.00
2022-11-29T14:54:33.057Z,102081.00
2022-11-29T14:57:37.888Z,102072.00
2022-11-29T15:00:08.788Z,102072.00
2022-11-29T15:02:47.958Z,102069.00
2022-11-29T15:05:19.471Z,102079.00
2022-11-29T15:07:57.135Z,102069.00
2022-11-29T15:10:27.294Z,102075.00
2022-11-29T15:12:54.151Z,102070.00
2022-11-29T15:15:37.367Z,102081.00
2022-11-29T15:18:17.628Z,102071.00
2022-11-29T15:20:54.961Z,102074.00
2022-11-29T15:23:21.580Z,102072.00
2022-11-29T15:25:53.157Z,102068.00
2022-11-29T15:28:29.137Z,102073.00
2022-11-29T15:31:03.050Z,102079.00
2022-11-29T15:33:29.860Z,102076.00
2022-11-29T15:36:17.076Z,102081.00
2022-11-29T15:38:48.351Z,102072.00
2022-11-29T15:41:31.983Z,102074.00
2022-11-29T15:44:01.896Z,102077.00
2022-11-29T15:46:30.683Z,102070.00
2022-11-29T15:49:19.345Z,102075.00
2022-11-29T15:51:50.663Z,102069.00
2022-11-29T15:54:20.189Z,102075.00
2022-11-29T15:56:52.038Z,102080.00
2022-11-29T15:59:35.175Z,102074.00
2022-11-29T16:02:34.320Z,102082.00
2022-11-29T16:05:14.897Z,102084.00
2022-11-29T16:07:42.958Z,102087.00
2022-11-29T16:10:16.619Z,102101.00
2022-11-29T16:12:58.027Z,102097.00
2022-11-29T16:15:30.951Z,102096.00
2022-11-29T16:18:11.024Z,102101.00
2022-11-29T16:20:37.697Z,102099.00
2022-11-29T16:23:13.770Z,102099.00
2022-11-29T16:26:01.877Z,102108.00
2022-11-29T16:28:36.244Z,102111.00
2022-11-29T16:31:04.850Z,102108.00
2022-11-29T16:33:32.299Z,102106.00
2022-11-29T16:36:26.589Z,102107.00
2022-11-29T16:38:57.673Z,102106.00
2022-11-29T16:41:32.326Z,102113.00
2022-11-29T16:44:00.043Z,102116.00
2022-11-29T16:46:30.744Z,102112.00
2022-11-29T16:48:59.245Z,102119.00
2022-11-29T16:51:37.456Z,102118.00
2022-11-29T16:54:22.333Z,102119.00
2022-11-29T16:56:52.048Z,102129.00
2022-11-29T16:59:26.884Z,102129.00
2022-11-29T17:01:55.544Z,102127.00
2022-11-29T17:04:24.233Z,102128.00
2022-11-29T17:06:56.257Z,102118.00
2022-11-29T17:09:29.592Z,102132.00
2022-11-29T17:11:59.820Z,102135.00
2022-11-29T17:14:26.760Z,102147.00
2022-11-29T17:16:53.397Z,102143.00
2022-11-29T17:19:22.092Z,102149.00
2022-11-29T17:21:48.771Z,102145.00
2022-11-29T17:24:18.138Z,102144.00
2022-11-29T17:26:45.492Z,102138.00
2022-11-29T17:29:16.750Z,102140.00
2022-11-29T17:31:45.162Z,102147.00
2022-11-29T17:34:11.983Z,102141.00
2022-11-29T17:36:38.745Z,102142.00
2022-11-29T17:39:05.777Z,102153.00
2022-11-29T17:41:33.110Z,102149.00
2022-11-29T17:44:00.078Z,102154.00
2022-11-29T17:46:29.448Z,102153.00
2022-11-29T17:48:58.248Z,102144.00
2022-11-29T17:54:12.036Z,102147.00
2022-11-29T17:56:38.691Z,102158.00
2022-11-29T17:59:05.444Z,102159.00
2022-11-29T18:01:34.828Z,102155.00
2022-11-29T18:04:03.683Z,102159.00
2022-11-29T18:06:35.490Z,102154.00
2022-11-29T18:09:06.000Z,102153.00
2022-11-29T18:11:44.887Z,102162.00
2022-11-29T18:14:16.121Z,102158.00
2022-11-29T18:16:43.003Z,102149.00
2022-11-29T18:19:12.856Z,102168.00
2022-11-29T18:21:39.460Z,102165.00
2022-11-29T18:24:07.267Z,102163.00
2022-11-29T18:26:36.237Z,102172.00
2022-11-29T18:29:03.404Z,102177.00
2022-11-29T18:31:33.017Z,102177.00
2022-11-29T18:34:01.981Z,102178.00
2022-11-29T18:36:31.079Z,102177.00
2022-11-29T18:39:07.398Z,102186.00
2022-11-29T18:41:34.292Z,102184.00
2022-11-29T18:44:08.255Z,102193.00
2022-11-29T18:46:37.290Z,102191.00
2022-11-29T18:49:06.192Z,102197.00
2022-11-29T18:51:34.228Z,102193.00
2022-11-29T18:54:01.509Z,102194.00
2022-11-29T18:56:33.005Z,102198.00
2022-11-29T18:59:04.866Z,102201.00
2022-11-29T19:01:34.373Z,102207.00
2022-11-29T19:04:01.881Z,102204.00
2022-11-29T19:06:38.659Z,102202.00
2022-11-29T19:09:07.016Z,102206.00
2022-11-29T19:11:34.418Z,102209.00
2022-11-29T19:14:04.013Z,102217.00
2022-11-29T19:16:33.308Z,102222.00
2022-11-29T19:19:01.133Z,102224.00
2022-11-29T19:21:30.237Z,102220.00
2022-11-29T19:23:58.845Z,102221.00
2022-11-29T19:26:28.148Z,102218.00
2022-11-29T19:28:55.161Z,102230.00
2022-11-29T19:31:27.401Z,102217.00
2022-11-29T19:33:55.682Z,102223.00
2022-11-29T19:36:28.114Z,102235.00
2022-11-29T19:38:54.907Z,102237.00
2022-11-29T19:41:27.239Z,102232.00
2022-11-29T19:43:55.980Z,102234.00
2022-11-29T19:46:24.977Z,102233.00
2022-11-29T19:48:56.680Z,102228.00
2022-11-29T19:51:25.102Z,102240.00
2022-11-29T19:53:53.510Z,102238.00
2022-11-29T19:56:21.028Z,102247.00
2022-11-29T19:58:47.899Z,102248.00
2022-11-29T20:01:23.063Z,102239.00
2022-11-29T20:03:50.033Z,102240.00
2022-11-29T20:06:17.312Z,102252.00
2022-11-29T20:08:43.971Z,102243.00
2022-11-29T20:11:19.564Z,102246.00
2022-11-29T20:13:51.457Z,102247.00
2022-11-29T20:16:22.027Z,102251.00
2022-11-29T20:18:51.172Z,102255.00
2022-11-29T20:21:39.660Z,102246.00
2022-11-29T20:24:07.819Z,102249.00
2022-11-29T20:26:36.751Z,102255.00
2022-11-29T20:29:04.533Z,102242.00
2022-11-29T20:31:32.714Z,102249.00
2022-11-29T20:33:59.839Z,102255.00
2022-11-29T20:36:57.941Z,102251.00
2022-11-29T20:40:09.953Z,102251.00
2022-11-29T20:42:45.207Z,102256.00
2022-11-29T20:45:13.711Z,102270.00
2022-11-29T20:47:42.891Z,102261.00
2022-11-29T20:50:22.881Z,102266.00
2022-11-29T20:52:56.009Z,102269.00
2022-11-29T20:55:22.748Z,102267.00
2022-11-29T20:57:49.935Z,102277.00
2022-11-29T21:00:16.860Z,102284.00
2022-11-29T21:02:43.500Z,102287.00
2022-11-29T21:05:10.366Z,102278.00
2022-11-29T21:07:37.065Z,102278.00
2022-11-29T21:10:04.810Z,102278.00
2022-11-29T21:12:31.889Z,102277.00
2022-11-29T21:14:58.941Z,102280.00
2022-11-29T21:17:31.872Z,102275.00
2022-11-29T21:20:00.507Z,102272.00
2022-11-29T21:23:15.767Z,102279.00
2022-11-29T21:26:01.758Z,102276.00
2022-11-29T21:28:34.752Z,102278.00
2022-11-29T21:31:01.795Z,102277.00
2022-11-29T21:33:28.726Z,102267.00
2022-11-29T21:35:58.021Z,102272.00
2022-11-29T21:38:26.831Z,102266.00
2022-11-29T21:40:53.420Z,102273.00
2022-11-29T21:43:20.792Z,102270.00
2022-11-29T21:45:49.338Z,102268.00
2022-11-29T21:48:34.396Z,102270.00
2022-11-29T21:51:07.902Z,102271.00
2022-11-29T21:53:36.761Z,102275.00
2022-11-29T21:56:06.293Z,102274.00
2022-11-29T21:58:34.946Z,102274.00
2022-11-29T22:01:19.506Z,102276.00
2022-11-29T22:03:46.685Z,102270.00
2022-11-29T22:06:18.254Z,102272.00
2022-11-29T22:08:44.838Z,102273.00
2022-11-29T22:11:14.140Z,102266.00
2022-11-29T22:14:01.616Z,102272.00
2022-11-29T22:16:29.770Z,102268.00
2022-11-29T22:18:56.411Z,102280.00
2022-11-29T22:21:22.981Z,102276.00
2022-11-29T22:23:49.618Z,102277.00
2022-11-29T22:26:16.192Z,102283.00
2022-11-29T22:28:42.708Z,102278.00
2022-11-29T22:31:11.417Z,102268.00
2022-11-29T22:33:38.974Z,102280.00
2022-11-29T22:36:07.409Z,102269.00
2022-11-29T22:38:35.252Z,102275.00
2022-11-29T22:41:04.097Z,102274.00
2022-11-29T22:43:31.743Z,102277.00
2022-11-29T22:46:06.544Z,102270.00
2022-11-29T22:48:38.475Z,102273.00
2022-11-29T22:51:11.591Z,102281.00
2022-11-29T22:53:39.062Z,102277.00
2022-11-29T22:56:08.405Z,102283.00
2022-11-29T22:58:35.095Z,102290.00
2022-11-29T23:01:09.595Z,102286.00
2022-11-29T23:03:38.796Z,102286.00
2022-11-29T23:06:07.908Z,102291.00
2022-11-29T23:08:35.521Z,102294.00
2022-11-29T23:11:04.546Z,102292.00
2022-11-29T23:13:36.689Z,102294.00
2022-11-29T23:16:05.147Z,102291.00
2022-11-29T23:18:32.179Z,102286.00
2022-11-29T23:21:07.671Z,102293.00
2022-11-29T23:23:35.006Z,102297.00
2022-11-29T23:26:02.574Z,102296.00
2022-11-29T23:28:29.738Z,102295.00
2022-11-29T23:30:56.466Z,102296.00
2022-11-29T23:33:23.393Z,102300.00
2022-11-29T23:35:50.899Z,102299.00
2022-11-29T23:38:18.398Z,102295.00
2022-11-29T23:40:44.969Z,102311.00
2022-11-29T23:43:11.503Z,102310.00
2022-11-29T23:45:39.348Z,102309.00
2022-11-29T23:48:06.181Z,102316.00
2022-11-29T23:50:32.861Z,102312.00
2022-11-29T23:52:59.514Z,102309.00
2022-11-29T23:55:26.866Z,102313.00
2022-11-29T23:57:53.423Z,102312.00
